To NAV CANADA Home Page Login to a new session Search on AWWS site Feedback and Comments Disclaimer Vers la page française équivalente Tips FAQ What's new on the site To the Forecasts and Observations / NOTAM section To "File a Flight Plan" website Publications and other links Update of the User's profile FIC Telephone Numbers My Weather Data Folder Route Weather Data Regional Weather Data Local Weather Data To the Forecasts and Observations / NOTAM section
Request Generated 05/06/2016 at 13:06:24 UTC . Weather information available at that time is displayed.

METAR/TAF

SARNIA/SARNIA (CHRIS HADFIELD)/ON    (show WxCam)

METAR CYZR 061300Z AUTO 35007KT 9SM CLR 10/06 A2995 RMK SLP147=
METAR CYZR 061200Z AUTO 01010KT 9SM CLR 09/06 A2994 RMK SLP142=
METAR CYZR 061100Z AUTO 01010KT 9SM CLR 08/05 A2992 RMK SLP137=

TAF CYZR 061138Z 0612/0624 01010KT P6SM FEW220
RMK FCST BASED ON AUTO OBS. NXT FCST BY 061400Z=
Your time UTC time
Weather data provided by Environment Canada and NAV CANADA